sensor_id;sensor_type;location;lat;lon;timestamp;temperature;humidity
53073;DHT22;38955;48.916;2.336;2023-07-29T00:01:28;20.90;99.90
53073;DHT22;38955;48.916;2.336;2023-07-29T00:03:30;20.90;99.90
53073;DHT22;38955;48.916;2.336;2023-07-29T00:05:36;20.90;99.90
53073;DHT22;38955;48.916;2.336;2023-07-29T00:07:38;20.90;99.90
53073;DHT22;38955;48.916;2.336;2023-07-29T00:09:40;21.00;99.90
53073;DHT22;38955;48.916;2.336;2023-07-29T00:11:42;20.90;99.90
53073;DHT22;38955;48.916;2.336;2023-07-29T00:13:44;21.00;99.90
53073;DHT22;38955;48.916;2.336;2023-07-29T00:15:46;21.00;99.90
53073;DHT22;38955;48.916;2.336;2023-07-29T00:17:48;20.90;99.90
53073;DHT22;38955;48.916;2.336;2023-07-29T00:19:50;20.90;99.90
53073;DHT22;38955;48.916;2.336;2023-07-29T00:21:54;20.90;99.90
53073;DHT22;38955;48.916;2.336;2023-07-29T00:23:58;20.90;99.90
53073;DHT22;38955;48.916;2.336;2023-07-29T00:26:02;20.90;99.90
53073;DHT22;38955;48.916;2.336;2023-07-29T00:28:04;20.90;99.90
53073;DHT22;38955;48.916;2.336;2023-07-29T00:30:07;20.90;99.90
53073;DHT22;38955;48.916;2.336;2023-07-29T00:32:10;20.90;99.90
53073;DHT22;38955;48.916;2.336;2023-07-29T00:34:15;20.80;99.90
53073;DHT22;38955;48.916;2.336;2023-07-29T00:36:21;20.80;99.90
53073;DHT22;38955;48.916;2.336;2023-07-29T00:38:24;20.80;99.90
53073;DHT22;38955;48.916;2.336;2023-07-29T00:40:28;20.70;99.90
53073;DHT22;38955;48.916;2.336;2023-07-29T00:42:30;20.70;99.90
53073;DHT22;38955;48.916;2.336;2023-07-29T00:44:32;20.70;99.90
53073;DHT22;38955;48.916;2.336;2023-07-29T00:46:34;20.70;99.90
53073;DHT22;38955;48.916;2.336;2023-07-29T00:48:38;20.70;99.90
53073;DHT22;38955;48.916;2.336;2023-07-29T00:50:41;20.70;99.90
53073;DHT22;38955;48.916;2.336;2023-07-29T00:52:43;20.70;99.90
53073;DHT22;38955;48.916;2.336;2023-07-29T00:54:47;20.70;99.90
53073;DHT22;38955;48.916;2.336;2023-07-29T00:56:49;20.70;99.90
53073;DHT22;38955;48.916;2.336;2023-07-29T00:58:51;20.70;99.90
53073;DHT22;38955;48.916;2.336;2023-07-29T01:00:58;20.70;99.90
53073;DHT22;38955;48.916;2.336;2023-07-29T01:03:00;20.70;99.90
53073;DHT22;38955;48.916;2.336;2023-07-29T01:05:03;20.70;99.90
53073;DHT22;38955;48.916;2.336;2023-07-29T01:07:12;20.70;99.90
53073;DHT22;38955;48.916;2.336;2023-07-29T01:09:23;20.70;99.90
53073;DHT22;38955;48.916;2.336;2023-07-29T01:11:44;20.60;99.90
53073;DHT22;38955;48.916;2.336;2023-07-29T01:13:50;20.60;99.90
53073;DHT22;38955;48.916;2.336;2023-07-29T01:15:58;20.60;99.90
53073;DHT22;38955;48.916;2.336;2023-07-29T01:18:05;20.60;99.90
53073;DHT22;38955;48.916;2.336;2023-07-29T01:20:09;20.60;99.90
53073;DHT22;38955;48.916;2.336;2023-07-29T01:22:13;20.50;99.90
53073;DHT22;38955;48.916;2.336;2023-07-29T01:24:18;20.50;99.90
53073;DHT22;38955;48.916;2.336;2023-07-29T01:26:22;20.50;99.90
53073;DHT22;38955;48.916;2.336;2023-07-29T01:28:25;20.40;99.90
53073;DHT22;38955;48.916;2.336;2023-07-29T01:30:30;20.40;99.90
53073;DHT22;38955;48.916;2.336;2023-07-29T01:32:38;20.40;99.90
53073;DHT22;38955;48.916;2.336;2023-07-29T01:34:46;20.40;99.90
53073;DHT22;38955;48.916;2.336;2023-07-29T01:36:50;20.40;99.90
53073;DHT22;38955;48.916;2.336;2023-07-29T01:38:54;20.30;99.90
53073;DHT22;38955;48.916;2.336;2023-07-29T01:40:59;20.30;99.90
53073;DHT22;38955;48.916;2.336;2023-07-29T01:43:03;20.30;99.90
53073;DHT22;38955;48.916;2.336;2023-07-29T01:45:06;20.30;99.90
53073;DHT22;38955;48.916;2.336;2023-07-29T01:47:08;20.30;99.90
53073;DHT22;38955;48.916;2.336;2023-07-29T01:49:10;20.20;99.90
53073;DHT22;38955;48.916;2.336;2023-07-29T01:51:13;20.20;99.90
53073;DHT22;38955;48.916;2.336;2023-07-29T01:53:15;20.20;99.90
53073;DHT22;38955;48.916;2.336;2023-07-29T01:55:17;20.20;99.90
53073;DHT22;38955;48.916;2.336;2023-07-29T01:57:20;20.20;99.90
53073;DHT22;38955;48.916;2.336;2023-07-29T01:59:23;20.10;99.90
53073;DHT22;38955;48.916;2.336;2023-07-29T02:01:24;20.10;99.90
53073;DHT22;38955;48.916;2.336;2023-07-29T02:03:27;20.10;99.90
53073;DHT22;38955;48.916;2.336;2023-07-29T02:05:29;20.10;99.90
53073;DHT22;38955;48.916;2.336;2023-07-29T02:07:33;20.00;99.90
53073;DHT22;38955;48.916;2.336;2023-07-29T02:09:35;20.10;99.90
53073;DHT22;38955;48.916;2.336;2023-07-29T02:11:37;20.00;99.90
53073;DHT22;38955;48.916;2.336;2023-07-29T02:13:40;20.00;99.90
53073;DHT22;38955;48.916;2.336;2023-07-29T02:15:42;20.00;99.90
53073;DHT22;38955;48.916;2.336;2023-07-29T02:17:44;20.00;99.90
53073;DHT22;38955;48.916;2.336;2023-07-29T02:19:47;19.90;99.90
53073;DHT22;38955;48.916;2.336;2023-07-29T02:21:49;19.90;99.90
53073;DHT22;38955;48.916;2.336;2023-07-29T02:23:51;20.00;99.90
53073;DHT22;38955;48.916;2.336;2023-07-29T02:25:53;19.90;99.90
53073;DHT22;38955;48.916;2.336;2023-07-29T02:27:55;19.90;99.90
53073;DHT22;38955;48.916;2.336;2023-07-29T02:29:59;19.90;99.90
53073;DHT22;38955;48.916;2.336;2023-07-29T02:32:02;19.90;99.90
53073;DHT22;38955;48.916;2.336;2023-07-29T02:34:04;19.90;99.90
53073;DHT22;38955;48.916;2.336;2023-07-29T02:36:06;19.90;99.90
53073;DHT22;38955;48.916;2.336;2023-07-29T02:38:08;19.80;99.90
53073;DHT22;38955;48.916;2.336;2023-07-29T02:40:11;19.70;99.90
53073;DHT22;38955;48.916;2.336;2023-07-29T02:42:13;19.80;99.90
53073;DHT22;38955;48.916;2.336;2023-07-29T02:44:15;19.70;99.90
53073;DHT22;38955;48.916;2.336;2023-07-29T02:46:18;19.70;99.90
53073;DHT22;38955;48.916;2.336;2023-07-29T02:48:21;19.80;99.90
53073;DHT22;38955;48.916;2.336;2023-07-29T02:50:23;19.70;99.90
53073;DHT22;38955;48.916;2.336;2023-07-29T02:52:25;19.70;99.90
53073;DHT22;38955;48.916;2.336;2023-07-29T02:54:27;19.70;99.90
53073;DHT22;38955;48.916;2.336;2023-07-29T02:56:29;19.70;99.90
53073;DHT22;38955;48.916;2.336;2023-07-29T02:58:32;19.70;99.90
53073;DHT22;38955;48.916;2.336;2023-07-29T03:00:34;19.60;99.90
53073;DHT22;38955;48.916;2.336;2023-07-29T03:02:38;19.60;99.90
53073;DHT22;38955;48.916;2.336;2023-07-29T03:04:41;19.50;99.90
53073;DHT22;38955;48.916;2.336;2023-07-29T03:06:43;19.50;99.90
53073;DHT22;38955;48.916;2.336;2023-07-29T03:08:45;19.50;99.90
53073;DHT22;38955;48.916;2.336;2023-07-29T03:10:47;19.60;99.90
53073;DHT22;38955;48.916;2.336;2023-07-29T03:12:49;19.50;99.90
53073;DHT22;38955;48.916;2.336;2023-07-29T03:14:51;19.50;99.90
53073;DHT22;38955;48.916;2.336;2023-07-29T03:16:53;19.50;99.90
53073;DHT22;38955;48.916;2.336;2023-07-29T03:18:56;19.50;99.90
53073;DHT22;38955;48.916;2.336;2023-07-29T03:20:59;19.50;99.90
53073;DHT22;38955;48.916;2.336;2023-07-29T03:23:02;19.50;99.90
53073;DHT22;38955;48.916;2.336;2023-07-29T03:25:05;19.50;99.90
53073;DHT22;38955;48.916;2.336;2023-07-29T03:27:08;19.50;99.90
53073;DHT22;38955;48.916;2.336;2023-07-29T03:29:11;19.50;99.90
53073;DHT22;38955;48.916;2.336;2023-07-29T03:31:13;19.50;99.90
53073;DHT22;38955;48.916;2.336;2023-07-29T03:33:16;19.50;99.90
53073;DHT22;38955;48.916;2.336;2023-07-29T03:35:19;19.40;99.90
53073;DHT22;38955;48.916;2.336;2023-07-29T03:37:21;19.40;99.90
53073;DHT22;38955;48.916;2.336;2023-07-29T03:39:23;19.40;99.90
53073;DHT22;38955;48.916;2.336;2023-07-29T03:41:25;19.40;99.90
53073;DHT22;38955;48.916;2.336;2023-07-29T03:43:27;19.30;99.90
53073;DHT22;38955;48.916;2.336;2023-07-29T03:45:29;19.30;99.90
53073;DHT22;38955;48.916;2.336;2023-07-29T03:47:31;19.30;99.90
53073;DHT22;38955;48.916;2.336;2023-07-29T03:49:34;19.30;99.90
53073;DHT22;38955;48.916;2.336;2023-07-29T03:51:37;19.30;99.90
53073;DHT22;38955;48.916;2.336;2023-07-29T03:53:39;19.30;99.90
53073;DHT22;38955;48.916;2.336;2023-07-29T03:55:41;19.20;99.90
53073;DHT22;38955;48.916;2.336;2023-07-29T03:57:43;19.20;99.90
53073;DHT22;38955;48.916;2.336;2023-07-29T03:59:45;19.20;99.90
53073;DHT22;38955;48.916;2.336;2023-07-29T04:01:47;19.10;99.90
53073;DHT22;38955;48.916;2.336;2023-07-29T04:03:49;19.10;99.90
53073;DHT22;38955;48.916;2.336;2023-07-29T04:05:54;19.10;99.90
53073;DHT22;38955;48.916;2.336;2023-07-29T04:07:57;19.10;99.90
53073;DHT22;38955;48.916;2.336;2023-07-29T04:09:59;19.00;99.90
53073;DHT22;38955;48.916;2.336;2023-07-29T04:12:03;19.00;99.90
53073;DHT22;38955;48.916;2.336;2023-07-29T04:14:05;18.90;99.90
53073;DHT22;38955;48.916;2.336;2023-07-29T04:16:09;19.00;99.90
53073;DHT22;38955;48.916;2.336;2023-07-29T04:18:11;18.90;99.90
53073;DHT22;38955;48.916;2.336;2023-07-29T04:20:13;18.90;99.90
53073;DHT22;38955;48.916;2.336;2023-07-29T04:22:15;18.90;99.90
53073;DHT22;38955;48.916;2.336;2023-07-29T04:24:19;18.90;99.90
53073;DHT22;38955;48.916;2.336;2023-07-29T04:26:22;18.90;99.90
53073;DHT22;38955;48.916;2.336;2023-07-29T04:28:24;18.90;99.90
53073;DHT22;38955;48.916;2.336;2023-07-29T04:30:26;18.80;99.90
53073;DHT22;38955;48.916;2.336;2023-07-29T04:32:28;18.90;99.90
53073;DHT22;38955;48.916;2.336;2023-07-29T04:34:31;18.90;99.90
53073;DHT22;38955;48.916;2.336;2023-07-29T04:36:33;18.80;99.90
53073;DHT22;38955;48.916;2.336;2023-07-29T04:38:37;18.80;99.90
53073;DHT22;38955;48.916;2.336;2023-07-29T04:40:40;18.80;99.90
53073;DHT22;38955;48.916;2.336;2023-07-29T04:42:42;18.80;99.90
53073;DHT22;38955;48.916;2.336;2023-07-29T04:44:44;18.80;99.90
53073;DHT22;38955;48.916;2.336;2023-07-29T04:46:46;18.80;99.90
53073;DHT22;38955;48.916;2.336;2023-07-29T04:48:48;18.80;99.90
53073;DHT22;38955;48.916;2.336;2023-07-29T04:50:50;18.80;99.90
53073;DHT22;38955;48.916;2.336;2023-07-29T04:52:52;18.80;99.90
53073;DHT22;38955;48.916;2.336;2023-07-29T04:54:55;18.80;99.90
53073;DHT22;38955;48.916;2.336;2023-07-29T04:56:58;18.80;99.90
53073;DHT22;38955;48.916;2.336;2023-07-29T04:59:00;18.90;99.90
53073;DHT22;38955;48.916;2.336;2023-07-29T05:01:02;18.90;99.90
53073;DHT22;38955;48.916;2.336;2023-07-29T05:03:05;18.90;99.90
53073;DHT22;38955;48.916;2.336;2023-07-29T05:05:08;18.90;99.90
53073;DHT22;38955;48.916;2.336;2023-07-29T05:07:10;18.90;99.90
53073;DHT22;38955;48.916;2.336;2023-07-29T05:09:13;18.80;99.90
53073;DHT22;38955;48.916;2.336;2023-07-29T05:11:15;18.80;99.90
53073;DHT22;38955;48.916;2.336;2023-07-29T05:13:19;18.80;99.90
53073;DHT22;38955;48.916;2.336;2023-07-29T05:15:22;18.80;99.90
53073;DHT22;38955;48.916;2.336;2023-07-29T05:17:24;18.80;99.90
53073;DHT22;38955;48.916;2.336;2023-07-29T05:19:26;18.80;99.90
53073;DHT22;38955;48.916;2.336;2023-07-29T05:21:28;18.90;99.90
53073;DHT22;38955;48.916;2.336;2023-07-29T05:23:31;18.90;99.90
53073;DHT22;38955;48.916;2.336;2023-07-29T05:25:33;18.90;99.90
53073;DHT22;38955;48.916;2.336;2023-07-29T05:27:38;19.00;99.90
53073;DHT22;38955;48.916;2.336;2023-07-29T05:29:42;19.00;99.90
53073;DHT22;38955;48.916;2.336;2023-07-29T05:31:44;19.00;99.90
53073;DHT22;38955;48.916;2.336;2023-07-29T05:33:46;19.00;99.90
53073;DHT22;38955;48.916;2.336;2023-07-29T05:35:48;19.00;99.90
53073;DHT22;38955;48.916;2.336;2023-07-29T05:37:50;19.00;99.90
53073;DHT22;38955;48.916;2.336;2023-07-29T05:39:52;19.00;99.90
53073;DHT22;38955;48.916;2.336;2023-07-29T05:41:55;19.00;99.90
53073;DHT22;38955;48.916;2.336;2023-07-29T05:43:57;19.00;99.90
53073;DHT22;38955;48.916;2.336;2023-07-29T05:46:00;19.00;99.90
53073;DHT22;38955;48.916;2.336;2023-07-29T05:48:02;19.00;99.90
53073;DHT22;38955;48.916;2.336;2023-07-29T05:50:05;18.90;99.90
53073;DHT22;38955;48.916;2.336;2023-07-29T05:52:08;18.90;99.90
53073;DHT22;38955;48.916;2.336;2023-07-29T05:54:10;18.90;99.90
53073;DHT22;38955;48.916;2.336;2023-07-29T05:56:12;19.00;99.90
53073;DHT22;38955;48.916;2.336;2023-07-29T05:58:14;19.00;99.90
53073;DHT22;38955;48.916;2.336;2023-07-29T06:00:17;19.00;99.90
53073;DHT22;38955;48.916;2.336;2023-07-29T06:02:21;19.00;99.90
53073;DHT22;38955;48.916;2.336;2023-07-29T06:04:23;19.00;99.90
53073;DHT22;38955;48.916;2.336;2023-07-29T06:06:25;19.10;99.90
53073;DHT22;38955;48.916;2.336;2023-07-29T06:08:27;19.00;99.90
53073;DHT22;38955;48.916;2.336;2023-07-29T06:10:31;19.00;99.90
53073;DHT22;38955;48.916;2.336;2023-07-29T06:12:32;19.10;99.90
53073;DHT22;38955;48.916;2.336;2023-07-29T06:14:34;19.10;99.90
53073;DHT22;38955;48.916;2.336;2023-07-29T06:16:36;19.10;99.90
53073;DHT22;38955;48.916;2.336;2023-07-29T06:18:41;19.10;99.90
53073;DHT22;38955;48.916;2.336;2023-07-29T06:20:43;19.20;99.90
53073;DHT22;38955;48.916;2.336;2023-07-29T06:22:45;19.20;99.90
53073;DHT22;38955;48.916;2.336;2023-07-29T06:24:47;19.20;99.90
53073;DHT22;38955;48.916;2.336;2023-07-29T06:26:49;19.30;99.90
53073;DHT22;38955;48.916;2.336;2023-07-29T06:28:51;19.30;99.90
53073;DHT22;38955;48.916;2.336;2023-07-29T06:30:53;19.40;99.90
53073;DHT22;38955;48.916;2.336;2023-07-29T06:32:55;19.40;99.90
53073;DHT22;38955;48.916;2.336;2023-07-29T06:34:59;19.50;99.90
53073;DHT22;38955;48.916;2.336;2023-07-29T06:37:01;19.50;99.90
53073;DHT22;38955;48.916;2.336;2023-07-29T06:39:03;19.50;99.90
53073;DHT22;38955;48.916;2.336;2023-07-29T06:41:05;19.60;99.90
53073;DHT22;38955;48.916;2.336;2023-07-29T06:43:07;19.60;99.90
53073;DHT22;38955;48.916;2.336;2023-07-29T06:45:10;19.80;99.90
53073;DHT22;38955;48.916;2.336;2023-07-29T06:47:12;19.80;99.90
53073;DHT22;38955;48.916;2.336;2023-07-29T06:49:14;20.00;99.90
53073;DHT22;38955;48.916;2.336;2023-07-29T06:51:17;20.10;99.90
53073;DHT22;38955;48.916;2.336;2023-07-29T06:53:19;20.10;99.90
53073;DHT22;38955;48.916;2.336;2023-07-29T06:55:21;20.10;99.90
53073;DHT22;38955;48.916;2.336;2023-07-29T06:57:23;20.10;99.90
53073;DHT22;38955;48.916;2.336;2023-07-29T06:59:25;20.20;99.90
53073;DHT22;38955;48.916;2.336;2023-07-29T07:01:27;20.20;99.90
53073;DHT22;38955;48.916;2.336;2023-07-29T07:03:29;20.40;99.90
53073;DHT22;38955;48.916;2.336;2023-07-29T07:05:32;20.40;99.90
53073;DHT22;38955;48.916;2.336;2023-07-29T07:07:35;20.50;99.90
53073;DHT22;38955;48.916;2.336;2023-07-29T07:09:38;20.50;99.90
53073;DHT22;38955;48.916;2.336;2023-07-29T07:11:40;20.60;99.90
53073;DHT22;38955;48.916;2.336;2023-07-29T07:13:42;20.70;99.90
53073;DHT22;38955;48.916;2.336;2023-07-29T07:15:44;20.70;99.90
53073;DHT22;38955;48.916;2.336;2023-07-29T07:17:47;20.80;99.90
53073;DHT22;38955;48.916;2.336;2023-07-29T07:19:49;20.70;99.90
53073;DHT22;38955;48.916;2.336;2023-07-29T07:21:51;20.70;99.90
53073;DHT22;38955;48.916;2.336;2023-07-29T07:23:55;20.60;99.90
53073;DHT22;38955;48.916;2.336;2023-07-29T07:25:57;20.50;99.90
53073;DHT22;38955;48.916;2.336;2023-07-29T07:27:59;20.40;99.90
53073;DHT22;38955;48.916;2.336;2023-07-29T07:30:01;20.40;99.90
53073;DHT22;38955;48.916;2.336;2023-07-29T07:32:03;20.40;99.90
53073;DHT22;38955;48.916;2.336;2023-07-29T07:34:05;20.40;99.90
53073;DHT22;38955;48.916;2.336;2023-07-29T07:36:08;20.40;99.90
53073;DHT22;38955;48.916;2.336;2023-07-29T07:38:10;20.30;99.90
53073;DHT22;38955;48.916;2.336;2023-07-29T07:40:13;20.30;99.90
53073;DHT22;38955;48.916;2.336;2023-07-29T07:42:15;20.30;99.90
53073;DHT22;38955;48.916;2.336;2023-07-29T07:44:18;20.30;99.90
53073;DHT22;38955;48.916;2.336;2023-07-29T07:46:21;20.30;99.90
53073;DHT22;38955;48.916;2.336;2023-07-29T07:48:23;20.30;99.90
53073;DHT22;38955;48.916;2.336;2023-07-29T07:50:25;20.40;99.90
53073;DHT22;38955;48.916;2.336;2023-07-29T07:52:30;20.40;99.90
53073;DHT22;38955;48.916;2.336;2023-07-29T07:54:32;20.50;99.90
53073;DHT22;38955;48.916;2.336;2023-07-29T07:56:35;20.60;99.90
53073;DHT22;38955;48.916;2.336;2023-07-29T07:58:38;20.70;99.90
53073;DHT22;38955;48.916;2.336;2023-07-29T08:00:41;20.90;99.90
53073;DHT22;38955;48.916;2.336;2023-07-29T08:02:43;20.90;99.90
53073;DHT22;38955;48.916;2.336;2023-07-29T08:04:46;20.90;99.90
53073;DHT22;38955;48.916;2.336;2023-07-29T08:06:48;21.00;99.90
53073;DHT22;38955;48.916;2.336;2023-07-29T08:08:50;21.10;99.90
53073;DHT22;38955;48.916;2.336;2023-07-29T08:10:52;21.20;99.90
53073;DHT22;38955;48.916;2.336;2023-07-29T08:12:56;21.30;99.90
53073;DHT22;38955;48.916;2.336;2023-07-29T08:14:58;21.40;99.90
53073;DHT22;38955;48.916;2.336;2023-07-29T08:17:00;21.50;99.90
53073;DHT22;38955;48.916;2.336;2023-07-29T08:19:03;21.60;99.90
53073;DHT22;38955;48.916;2.336;2023-07-29T08:21:05;21.60;99.90
53073;DHT22;38955;48.916;2.336;2023-07-29T08:23:07;21.70;99.90
53073;DHT22;38955;48.916;2.336;2023-07-29T08:25:10;21.80;99.90
53073;DHT22;38955;48.916;2.336;2023-07-29T08:27:12;21.70;99.90
53073;DHT22;38955;48.916;2.336;2023-07-29T08:29:15;21.60;99.90
53073;DHT22;38955;48.916;2.336;2023-07-29T08:31:17;21.60;99.90
53073;DHT22;38955;48.916;2.336;2023-07-29T08:33:19;21.50;99.90
53073;DHT22;38955;48.916;2.336;2023-07-29T08:35:21;21.40;99.90
53073;DHT22;38955;48.916;2.336;2023-07-29T08:37:23;21.40;99.90
53073;DHT22;38955;48.916;2.336;2023-07-29T08:39:25;21.50;99.90
53073;DHT22;38955;48.916;2.336;2023-07-29T08:41:35;21.50;99.90
53073;DHT22;38955;48.916;2.336;2023-07-29T08:43:41;21.50;99.90
53073;DHT22;38955;48.916;2.336;2023-07-29T08:45:46;21.60;99.90
53073;DHT22;38955;48.916;2.336;2023-07-29T08:47:50;21.60;99.90
53073;DHT22;38955;48.916;2.336;2023-07-29T08:49:54;21.60;99.90
53073;DHT22;38955;48.916;2.336;2023-07-29T08:51:57;21.70;99.90
53073;DHT22;38955;48.916;2.336;2023-07-29T08:54:00;21.80;99.90
53073;DHT22;38955;48.916;2.336;2023-07-29T08:56:03;22.00;99.90
53073;DHT22;38955;48.916;2.336;2023-07-29T08:58:07;22.10;99.90
53073;DHT22;38955;48.916;2.336;2023-07-29T09:00:10;22.20;99.90
53073;DHT22;38955;48.916;2.336;2023-07-29T09:02:14;22.20;99.90
53073;DHT22;38955;48.916;2.336;2023-07-29T09:04:16;22.30;99.90
53073;DHT22;38955;48.916;2.336;2023-07-29T09:06:20;22.30;99.90
53073;DHT22;38955;48.916;2.336;2023-07-29T09:08:25;22.40;99.90
53073;DHT22;38955;48.916;2.336;2023-07-29T09:10:27;22.60;99.90
53073;DHT22;38955;48.916;2.336;2023-07-29T09:12:29;22.70;99.90
53073;DHT22;38955;48.916;2.336;2023-07-29T09:14:31;22.90;99.90
53073;DHT22;38955;48.916;2.336;2023-07-29T09:16:34;22.90;99.90
53073;DHT22;38955;48.916;2.336;2023-07-29T09:18:38;22.90;99.90
53073;DHT22;38955;48.916;2.336;2023-07-29T09:20:40;23.10;99.90
53073;DHT22;38955;48.916;2.336;2023-07-29T09:22:44;23.20;99.90
53073;DHT22;38955;48.916;2.336;2023-07-29T09:24:46;23.30;99.90
53073;DHT22;38955;48.916;2.336;2023-07-29T09:26:51;23.30;99.90
53073;DHT22;38955;48.916;2.336;2023-07-29T09:28:57;23.40;99.90
53073;DHT22;38955;48.916;2.336;2023-07-29T09:30:59;23.40;99.90
53073;DHT22;38955;48.916;2.336;2023-07-29T09:33:01;23.30;99.90
53073;DHT22;38955;48.916;2.336;2023-07-29T09:35:10;23.40;99.90
53073;DHT22;38955;48.916;2.336;2023-07-29T09:37:16;23.60;99.90
53073;DHT22;38955;48.916;2.336;2023-07-29T09:39:18;23.60;99.90
53073;DHT22;38955;48.916;2.336;2023-07-29T09:41:22;23.50;99.70
53073;DHT22;38955;48.916;2.336;2023-07-29T09:43:30;23.50;99.70
53073;DHT22;38955;48.916;2.336;2023-07-29T09:45:34;23.40;99.60
53073;DHT22;38955;48.916;2.336;2023-07-29T09:47:37;23.30;99.90
53073;DHT22;38955;48.916;2.336;2023-07-29T09:49:39;23.30;99.90
53073;DHT22;38955;48.916;2.336;2023-07-29T09:51:42;23.30;99.90
53073;DHT22;38955;48.916;2.336;2023-07-29T09:53:47;23.40;99.90
53073;DHT22;38955;48.916;2.336;2023-07-29T09:55:49;23.50;99.90
53073;DHT22;38955;48.916;2.336;2023-07-29T09:57:57;23.50;99.60
53073;DHT22;38955;48.916;2.336;2023-07-29T10:00:05;23.40;99.60
53073;DHT22;38955;48.916;2.336;2023-07-29T10:02:15;23.50;99.90
53073;DHT22;38955;48.916;2.336;2023-07-29T10:04:17;23.40;99.70
53073;DHT22;38955;48.916;2.336;2023-07-29T10:06:20;23.50;99.70
53073;DHT22;38955;48.916;2.336;2023-07-29T10:08:24;23.50;99.70
53073;DHT22;38955;48.916;2.336;2023-07-29T10:10:28;23.60;99.40
53073;DHT22;38955;48.916;2.336;2023-07-29T10:12:31;23.50;99.30
53073;DHT22;38955;48.916;2.336;2023-07-29T10:14:33;23.60;99.70
53073;DHT22;38955;48.916;2.336;2023-07-29T10:16:36;23.50;99.60
53073;DHT22;38955;48.916;2.336;2023-07-29T10:18:40;23.60;99.70
53073;DHT22;38955;48.916;2.336;2023-07-29T10:20:44;23.70;99.70
53073;DHT22;38955;48.916;2.336;2023-07-29T10:22:47;23.90;99.60
53073;DHT22;38955;48.916;2.336;2023-07-29T10:24:52;23.80;99.00
53073;DHT22;38955;48.916;2.336;2023-07-29T10:26:58;23.90;99.40
53073;DHT22;38955;48.916;2.336;2023-07-29T10:29:04;24.00;99.20
53073;DHT22;38955;48.916;2.336;2023-07-29T10:31:07;24.00;99.20
53073;DHT22;38955;48.916;2.336;2023-07-29T10:33:09;23.90;99.20
53073;DHT22;38955;48.916;2.336;2023-07-29T10:35:13;23.80;99.20
53073;DHT22;38955;48.916;2.336;2023-07-29T10:37:16;23.70;99.40
53073;DHT22;38955;48.916;2.336;2023-07-29T10:39:18;23.70;99.20
53073;DHT22;38955;48.916;2.336;2023-07-29T10:41:22;23.60;99.60
53073;DHT22;38955;48.916;2.336;2023-07-29T10:43:25;23.50;99.30
53073;DHT22;38955;48.916;2.336;2023-07-29T10:45:36;23.50;99.60
53073;DHT22;38955;48.916;2.336;2023-07-29T10:47:39;23.40;99.70
53073;DHT22;38955;48.916;2.336;2023-07-29T10:49:41;23.40;99.60
53073;DHT22;38955;48.916;2.336;2023-07-29T10:51:43;23.50;99.50
53073;DHT22;38955;48.916;2.336;2023-07-29T10:53:48;23.50;99.40
53073;DHT22;38955;48.916;2.336;2023-07-29T10:55:53;23.60;99.60
53073;DHT22;38955;48.916;2.336;2023-07-29T10:58:12;23.60;99.60
53073;DHT22;38955;48.916;2.336;2023-07-29T11:00:16;23.60;99.60
53073;DHT22;38955;48.916;2.336;2023-07-29T11:02:21;23.60;99.60
53073;DHT22;38955;48.916;2.336;2023-07-29T11:04:30;23.60;99.60
53073;DHT22;38955;48.916;2.336;2023-07-29T11:09:40;24.10;99.00
53073;DHT22;38955;48.916;2.336;2023-07-29T11:11:45;24.50;98.40
53073;DHT22;38955;48.916;2.336;2023-07-29T11:13:49;24.60;98.60
53073;DHT22;38955;48.916;2.336;2023-07-29T11:15:51;24.60;98.10
53073;DHT22;38955;48.916;2.336;2023-07-29T11:17:56;24.70;98.20
53073;DHT22;38955;48.916;2.336;2023-07-29T11:20:00;24.80;98.30
53073;DHT22;38955;48.916;2.336;2023-07-29T11:22:02;24.80;97.70
53073;DHT22;38955;48.916;2.336;2023-07-29T11:24:05;25.00;98.10
53073;DHT22;38955;48.916;2.336;2023-07-29T11:26:07;25.10;97.50
53073;DHT22;38955;48.916;2.336;2023-07-29T11:28:15;25.00;97.60
53073;DHT22;38955;48.916;2.336;2023-07-29T11:30:18;24.90;97.80
53073;DHT22;38955;48.916;2.336;2023-07-29T11:32:20;24.90;97.90
53073;DHT22;38955;48.916;2.336;2023-07-29T11:34:31;24.80;97.90
53073;DHT22;38955;48.916;2.336;2023-07-29T11:36:33;24.80;98.00
53073;DHT22;38955;48.916;2.336;2023-07-29T11:38:35;24.80;97.90
53073;DHT22;38955;48.916;2.336;2023-07-29T11:40:39;24.80;97.80
53073;DHT22;38955;48.916;2.336;2023-07-29T11:42:42;24.80;97.90
53073;DHT22;38955;48.916;2.336;2023-07-29T11:44:44;24.70;98.00
53073;DHT22;38955;48.916;2.336;2023-07-29T11:46:48;24.60;98.10
53073;DHT22;38955;48.916;2.336;2023-07-29T11:48:50;24.40;98.20
53073;DHT22;38955;48.916;2.336;2023-07-29T11:50:53;24.20;98.50
53073;DHT22;38955;48.916;2.336;2023-07-29T11:52:58;24.10;98.70
53073;DHT22;38955;48.916;2.336;2023-07-29T11:55:00;24.10;98.80
53073;DHT22;38955;48.916;2.336;2023-07-29T11:57:06;24.20;98.70
53073;DHT22;38955;48.916;2.336;2023-07-29T11:59:08;24.20;98.80
53073;DHT22;38955;48.916;2.336;2023-07-29T12:01:10;24.30;98.80
53073;DHT22;38955;48.916;2.336;2023-07-29T12:03:14;24.40;98.70
53073;DHT22;38955;48.916;2.336;2023-07-29T12:05:18;24.50;98.90
53073;DHT22;38955;48.916;2.336;2023-07-29T12:07:23;24.50;98.70
53073;DHT22;38955;48.916;2.336;2023-07-29T12:09:30;24.50;98.50
53073;DHT22;38955;48.916;2.336;2023-07-29T12:11:33;24.50;98.10
53073;DHT22;38955;48.916;2.336;2023-07-29T12:13:36;24.60;98.20
53073;DHT22;38955;48.916;2.336;2023-07-29T12:15:38;24.60;98.10
53073;DHT22;38955;48.916;2.336;2023-07-29T12:17:42;24.60;98.00
53073;DHT22;38955;48.916;2.336;2023-07-29T12:19:45;24.60;98.10
53073;DHT22;38955;48.916;2.336;2023-07-29T12:21:48;24.60;98.40
53073;DHT22;38955;48.916;2.336;2023-07-29T12:23:50;24.60;98.50
53073;DHT22;38955;48.916;2.336;2023-07-29T12:25:58;24.70;98.30
53073;DHT22;38955;48.916;2.336;2023-07-29T12:28:05;24.70;98.30
53073;DHT22;38955;48.916;2.336;2023-07-29T12:30:10;24.90;98.20
53073;DHT22;38955;48.916;2.336;2023-07-29T12:32:17;24.90;98.20
53073;DHT22;38955;48.916;2.336;2023-07-29T12:34:19;24.80;97.60
53073;DHT22;38955;48.916;2.336;2023-07-29T12:36:27;24.70;98.10
53073;DHT22;38955;48.916;2.336;2023-07-29T12:38:43;24.80;97.60
53073;DHT22;38955;48.916;2.336;2023-07-29T12:40:46;24.80;98.30
53073;DHT22;38955;48.916;2.336;2023-07-29T12:42:48;24.80;98.20
53073;DHT22;38955;48.916;2.336;2023-07-29T12:44:51;24.70;98.50
53073;DHT22;38955;48.916;2.336;2023-07-29T12:46:52;24.60;98.70
53073;DHT22;38955;48.916;2.336;2023-07-29T12:48:55;24.60;98.20
53073;DHT22;38955;48.916;2.336;2023-07-29T12:50:57;24.60;98.80
53073;DHT22;38955;48.916;2.336;2023-07-29T12:53:00;24.70;98.90
53073;DHT22;38955;48.916;2.336;2023-07-29T12:55:03;24.70;98.60
53073;DHT22;38955;48.916;2.336;2023-07-29T12:57:05;24.70;98.90
53073;DHT22;38955;48.916;2.336;2023-07-29T12:59:07;24.90;98.90
53073;DHT22;38955;48.916;2.336;2023-07-29T13:01:09;25.10;98.40